METAR AND TAF INFORMATION
METAR FOR EBBL
ADDS - METARS form results

(1954 UTC 21 August 2019)
Data provider http://aviationweather.gov/metar/data/
 
METAR text: EBBL 211925Z AUTO 00000KT 9999 NCD 16/09 Q1027 BLU
Conditions at: EBBL (KLEINE-BROGEL(BA, BE) observed 1925 UTC 21 August 2019
Temperature: 16.0°C (61°F)
Dewpoint: 9.0°C (48°F) [RH = 63%]
Pressure (altimeter): 30.32 inches Hg (1027.0 mb)
Winds: calm
Visibility: 6 or more miles (10+ km)
Ceiling: at least 12,000 feet AGL
Clouds: sky clear below 12,000 feet AGL
Weather: no significant weather observed at this time

METAR text: EBBL 211911Z AUTO VRB01KT 3000 NCD 16/10 Q1027 YLO
Conditions at: EBBL (KLEINE-BROGEL(BA, BE) observed 1911 UTC 21 August 2019
Temperature: 16.0°C (61°F)
Dewpoint: 10.0°C (50°F) [RH = 68%]
Pressure (altimeter): 30.32 inches Hg (1027.0 mb)
Winds: variable direction winds at 1 MPH (1 knots; 0.5 m/s)
Visibility: 1.86 miles (2.99 km)
Ceiling: at least 12,000 feet AGL
Clouds: sky clear below 12,000 feet AGL
Weather: no significant weather observed at this time

METAR text: EBBL 211906Z AUTO VRB01KT 4600 NCD 17/11 Q1027 GRN
Conditions at: EBBL (KLEINE-BROGEL(BA, BE) observed 1906 UTC 21 August 2019
Temperature: 17.0°C (63°F)
Dewpoint: 11.0°C (52°F) [RH = 68%]
Pressure (altimeter): 30.32 inches Hg (1027.0 mb)
Winds: variable direction winds at 1 MPH (1 knots; 0.5 m/s)
Visibility: 2.86 miles (4.60 km)
Ceiling: at least 12,000 feet AGL
Clouds: sky clear below 12,000 feet AGL
Weather: no significant weather observed at this time

METAR text: EBBL 211905Z AUTO VRB01KT 7000 NCD 17/11 Q1027 WHT
Conditions at: EBBL (KLEINE-BROGEL(BA, BE) observed 1905 UTC 21 August 2019
Temperature: 17.0°C (63°F)
Dewpoint: 11.0°C (52°F) [RH = 68%]
Pressure (altimeter): 30.32 inches Hg (1027.0 mb)
Winds: variable direction winds at 1 MPH (1 knots; 0.5 m/s)
Visibility: 4 miles ( 7 km)
Ceiling: at least 12,000 feet AGL
Clouds: sky clear below 12,000 feet AGL
Weather: no significant weather observed at this time

METAR text: EBBL 211855Z AUTO VRB01KT 9999 NCD 17/10 Q1026 BLU
Conditions at: EBBL (KLEINE-BROGEL(BA, BE) observed 1855 UTC 21 August 2019
Temperature: 17.0°C (63°F)
Dewpoint: 10.0°C (50°F) [RH = 63%]
Pressure (altimeter): 30.30 inches Hg (1026.0 mb)
Winds: variable direction winds at 1 MPH (1 knots; 0.5 m/s)
Visibility: 6 or more miles (10+ km)
Ceiling: at least 12,000 feet AGL
Clouds: sky clear below 12,000 feet AGL
Weather: no significant weather observed at this time

Forecast for: EBBL (KLEINE-BROGEL(BA, BE)
Text: TAF EBBL 211541Z 2119/2207 VRB03KT 9999 SCT250
Forecast period: 1900 UTC 21 August 2019 to 0700 UTC 22 August 2019
Forecast type: FROM: standard forecast or significant change
Winds: variable direction winds at 3 MPH (3 knots; 1.5 m/s)
Visibility: 6 or more miles 10+ km)
Ceiling: at least 12,000 feet AGL
Clouds: scattered clouds at 25000 feet AGL
Weather: no significant weather forecast for this period

 AIRPORT MAP

 RUNWAY INFORMATION
Runway 05L Runway length 10158 ft Runway width 148 ft
Runway elevation 193 ft Runway displaced threshold 1085 ft Runway heading 50
Runway 23R Runway length 10158 ft Runway width 148 ft
Runway elevation 169 ft Runway displaced threshold 1128 ft Runway heading 230
Runway 05R Runway length 7874 ft Runway width 75 ft
Runway elevation 0 ft Runway displaced threshold 0 ft Runway heading 50
Runway 23L Runway length 7874 ft Runway width 75 ft
Runway elevation 0 ft Runway displaced threshold 24 ft Runway heading 230

 AIRPORT FREQUENCIES
Type APP Name APP Frequency 122.5 MHZ
Type GND Name TAXI Frequency 122.1 MHZ
Type TWR Name TWR Frequency 122.1 MHZ

 AIRPORT NEAR NAVIGATION AIDS
Type TACAN Name Kleine Brogel Frequency 109600 KHZ
Type NDB Name Kleine Brogel Frequency 431 KHZ